createdAt,value
2017-12-26T00:02:00.888Z,16.80
2017-12-26T00:04:26.914Z,17.43
2017-12-26T00:06:52.903Z,15.97
2017-12-26T00:09:18.895Z,16.60
2017-12-26T00:11:44.909Z,15.03
2017-12-26T00:14:10.887Z,16.67
2017-12-26T00:16:37.623Z,15.33
2017-12-26T00:19:03.570Z,14.33
2017-12-26T00:21:30.330Z,17.40
2017-12-26T00:23:57.030Z,19.70
2017-12-26T00:26:23.056Z,19.23
2017-12-26T00:28:49.033Z,16.17
2017-12-26T00:31:15.044Z,16.40
2017-12-26T00:33:41.037Z,22.30
2017-12-26T00:36:06.996Z,17.43
2017-12-26T00:38:32.946Z,18.73
2017-12-26T00:40:58.943Z,17.80
2017-12-26T00:43:24.890Z,18.80
2017-12-26T00:45:50.834Z,17.23
2017-12-26T00:48:16.822Z,20.33
2017-12-26T00:50:42.806Z,20.07
2017-12-26T00:53:08.819Z,16.13
2017-12-26T00:55:34.806Z,19.33
2017-12-26T00:58:00.749Z,22.03
2017-12-26T01:00:26.750Z,19.77
2017-12-26T01:02:52.729Z,16.70
2017-12-26T01:05:18.677Z,16.83
2017-12-26T01:07:44.679Z,18.77
2017-12-26T01:10:10.671Z,18.20
2017-12-26T01:12:36.634Z,17.60
2017-12-26T01:15:02.658Z,21.57
2017-12-26T01:17:28.618Z,21.10
2017-12-26T01:19:54.597Z,19.50
2017-12-26T01:22:21.317Z,19.20
2017-12-26T01:24:47.305Z,20.27
2017-12-26T01:27:13.326Z,17.10
2017-12-26T01:29:40.014Z,15.97
2017-12-26T01:32:06.000Z,16.90
2017-12-26T01:34:31.954Z,19.10
2017-12-26T01:36:58.693Z,22.07
2017-12-26T01:39:24.637Z,17.90
2017-12-26T01:41:51.362Z,17.07
2017-12-26T01:44:17.314Z,20.20
2017-12-26T01:46:43.302Z,17.87
2017-12-26T01:49:09.314Z,18.87
2017-12-26T01:51:35.998Z,18.60
2017-12-26T01:54:01.945Z,17.07
2017-12-26T01:56:27.960Z,20.23
2017-12-26T01:58:53.942Z,20.00
2017-12-26T02:01:19.913Z,18.47
2017-12-26T02:03:45.878Z,17.90
2017-12-26T02:06:11.887Z,21.20
2017-12-26T02:08:37.837Z,17.87
2017-12-26T02:11:03.831Z,16.50
2017-12-26T02:13:30.598Z,17.50
2017-12-26T02:15:57.298Z,17.90
2017-12-26T02:18:23.291Z,17.97
2017-12-26T02:20:49.986Z,18.00
2017-12-26T02:23:15.929Z,14.70
2017-12-26T02:25:41.919Z,21.77
2017-12-26T02:28:07.869Z,18.03
2017-12-26T02:30:33.821Z,18.70
2017-12-26T02:32:59.802Z,16.23
2017-12-26T02:35:25.753Z,16.20
2017-12-26T02:37:52.452Z,17.80
2017-12-26T02:40:18.436Z,21.37
2017-12-26T02:42:45.145Z,16.03
2017-12-26T02:45:11.163Z,17.60
2017-12-26T02:47:37.150Z,15.40
2017-12-26T02:50:03.129Z,15.90
2017-12-26T02:52:29.114Z,16.50
2017-12-26T02:54:55.070Z,14.77
2017-12-26T02:57:21.839Z,16.40
2017-12-26T02:59:47.777Z,16.97
2017-12-26T03:02:13.783Z,16.90
2017-12-26T03:04:39.766Z,14.40
2017-12-26T03:07:05.705Z,14.37
2017-12-26T03:09:31.656Z,12.70
2017-12-26T03:11:57.681Z,15.03
2017-12-26T03:14:23.701Z,14.40
2017-12-26T03:16:49.649Z,15.40
2017-12-26T03:19:15.637Z,11.50
2017-12-26T03:21:41.607Z,13.67
2017-12-26T03:24:07.566Z,16.23
2017-12-26T03:26:33.549Z,14.37
2017-12-26T03:29:00.260Z,13.20
2017-12-26T03:31:26.245Z,14.50
2017-12-26T03:33:52.941Z,12.90
2017-12-26T03:36:18.904Z,14.13
2017-12-26T03:38:44.936Z,12.77
2017-12-26T03:41:10.976Z,14.17
2017-12-26T03:43:36.974Z,15.00
2017-12-26T03:46:02.921Z,12.83
2017-12-26T03:48:28.926Z,17.00
2017-12-26T03:50:54.884Z,16.30
2017-12-26T03:53:20.842Z,13.80
2017-12-26T03:55:46.826Z,13.80
2017-12-26T03:58:13.528Z,18.80
2017-12-26T04:00:39.522Z,13.97
2017-12-26T04:03:05.474Z,16.30
2017-12-26T04:05:31.424Z,15.50
2017-12-26T04:07:57.418Z,13.90
2017-12-26T04:10:24.140Z,15.43
2017-12-26T04:12:50.094Z,15.00
2017-12-26T04:15:16.057Z,14.07
2017-12-26T04:17:42.042Z,15.83
2017-12-26T04:20:08.017Z,17.00
2017-12-26T04:22:34.741Z,14.07
2017-12-26T04:25:00.689Z,15.73
2017-12-26T04:27:26.665Z,15.07
2017-12-26T04:29:52.717Z,16.77
2017-12-26T04:32:18.676Z,13.83
2017-12-26T04:34:44.666Z,15.70
2017-12-26T04:37:10.982Z,16.97
2017-12-26T04:39:36.922Z,15.20
2017-12-26T04:42:03.638Z,17.70
2017-12-26T04:44:29.612Z,14.03
2017-12-26T04:46:56.302Z,17.60
2017-12-26T04:49:22.240Z,12.60
2017-12-26T04:51:48.229Z,17.70
2017-12-26T04:54:14.201Z,18.57
2017-12-26T04:56:40.147Z,19.10
2017-12-26T04:59:06.133Z,16.40
2017-12-26T05:01:32.073Z,18.70
2017-12-26T05:03:58.793Z,15.07
2017-12-26T05:06:24.776Z,17.13
2017-12-26T05:08:51.486Z,18.30
2017-12-26T05:11:17.463Z,15.17
2017-12-26T05:13:44.156Z,16.97
2017-12-26T05:16:10.127Z,17.77
2017-12-26T05:18:37.034Z,16.73
2017-12-26T05:21:02.974Z,14.90
2017-12-26T05:23:29.063Z,13.30
2017-12-26T05:25:55.054Z,15.43
2017-12-26T05:28:20.998Z,15.10
2017-12-26T05:30:46.950Z,16.80
2017-12-26T05:33:12.941Z,16.33
2017-12-26T05:35:38.879Z,17.63
2017-12-26T05:38:04.867Z,19.67
2017-12-26T05:40:30.817Z,15.40
2017-12-26T05:42:56.761Z,17.23
2017-12-26T05:45:23.474Z,16.00
2017-12-26T05:47:49.420Z,19.43
2017-12-26T05:50:15.414Z,14.77
2017-12-26T05:52:41.410Z,20.33
2017-12-26T05:55:07.353Z,15.87
2017-12-26T05:57:34.064Z,16.37
2017-12-26T06:00:00.056Z,16.73
2017-12-26T06:02:26.027Z,15.53
2017-12-26T06:04:51.961Z,17.70
2017-12-26T06:07:17.973Z,19.80
2017-12-26T06:09:43.931Z,20.53
2017-12-26T06:12:09.882Z,17.53
2017-12-26T06:14:35.853Z,18.37
2017-12-26T06:17:02.534Z,19.27
2017-12-26T06:19:28.545Z,20.10
2017-12-26T06:21:55.234Z,17.67
2017-12-26T06:24:21.182Z,18.60
2017-12-26T06:26:47.166Z,22.03
2017-12-26T06:29:13.869Z,19.10
2017-12-26T06:31:39.844Z,21.93
2017-12-26T06:34:05.785Z,17.47
2017-12-26T06:36:31.777Z,17.80
2017-12-26T06:39:04.761Z,15.07
2017-12-26T06:41:30.741Z,19.00
2017-12-26T06:43:56.702Z,19.07
2017-12-26T06:46:23.433Z,18.30
2017-12-26T06:48:49.390Z,21.40
2017-12-26T06:51:16.078Z,20.00
2017-12-26T06:53:42.073Z,18.10
2017-12-26T06:56:08.773Z,21.13
2017-12-26T06:58:34.749Z,18.13
2017-12-26T07:01:00.713Z,19.37
2017-12-26T07:03:27.440Z,17.00
2017-12-26T07:05:53.389Z,17.57
2017-12-26T07:08:20.090Z,19.60
2017-12-26T07:10:46.064Z,17.93
2017-12-26T07:13:12.070Z,17.40
2017-12-26T07:15:38.063Z,19.50
2017-12-26T07:18:04.019Z,17.63
2017-12-26T07:20:36.097Z,18.40
2017-12-26T07:23:02.069Z,15.90
2017-12-26T07:25:28.762Z,18.00
2017-12-26T07:27:55.493Z,16.80
2017-12-26T07:30:21.429Z,20.13
2017-12-26T07:32:47.378Z,21.30
2017-12-26T07:35:14.116Z,21.33
2017-12-26T07:37:40.908Z,19.50
2017-12-26T07:40:06.894Z,18.53
2017-12-26T07:42:32.877Z,20.33
2017-12-26T07:44:58.874Z,19.53
2017-12-26T07:47:24.823Z,16.60
2017-12-26T07:49:50.806Z,20.80
2017-12-26T07:52:16.756Z,21.43
2017-12-26T07:54:42.783Z,19.97
2017-12-26T07:57:08.746Z,20.27
2017-12-26T07:59:34.754Z,17.70
2017-12-26T08:02:00.684Z,17.83
2017-12-26T08:04:26.650Z,21.00
2017-12-26T08:06:52.633Z,18.60
2017-12-26T08:09:18.673Z,20.50
2017-12-26T08:11:44.674Z,20.50
2017-12-26T08:14:10.632Z,21.73
2017-12-26T08:16:37.350Z,17.77
2017-12-26T08:19:03.334Z,19.53
2017-12-26T08:21:29.310Z,18.37
2017-12-26T08:23:55.257Z,18.73
2017-12-26T08:26:21.233Z,25.47
2017-12-26T08:28:47.186Z,16.40
2017-12-26T08:31:13.202Z,19.70
2017-12-26T08:33:39.171Z,20.80
2017-12-26T08:36:05.162Z,19.00
2017-12-26T08:38:38.749Z,18.70
2017-12-26T08:41:04.699Z,21.23
2017-12-26T08:43:30.678Z,20.63
2017-12-26T08:45:56.649Z,21.40
2017-12-26T08:48:22.587Z,18.87
2017-12-26T08:50:48.578Z,21.43
2017-12-26T08:53:14.536Z,18.13
2017-12-26T08:55:40.548Z,21.53
2017-12-26T08:58:06.521Z,18.57
2017-12-26T09:00:32.480Z,18.90
2017-12-26T09:02:59.214Z,22.80
2017-12-26T09:05:25.181Z,21.90
2017-12-26T09:07:51.960Z,21.37
2017-12-26T09:10:17.961Z,22.57
2017-12-26T09:12:43.925Z,16.70
2017-12-26T09:15:09.875Z,17.20
2017-12-26T09:17:35.857Z,23.50
2017-12-26T09:20:01.802Z,18.90
2017-12-26T09:22:27.742Z,17.77
2017-12-26T09:24:53.714Z,17.90
2017-12-26T09:27:19.678Z,18.20
2017-12-26T09:29:45.647Z,21.43
2017-12-26T09:32:11.715Z,18.67
2017-12-26T09:34:38.408Z,25.00
2017-12-26T09:37:04.350Z,19.00
2017-12-26T09:39:30.326Z,24.57
2017-12-26T09:41:57.011Z,21.07
2017-12-26T09:44:22.990Z,21.73
2017-12-26T09:46:48.966Z,18.77
2017-12-26T09:49:14.983Z,20.50
2017-12-26T09:51:41.686Z,18.83
2017-12-26T09:54:07.669Z,15.80
2017-12-26T09:56:33.624Z,15.03
2017-12-26T09:58:59.570Z,16.73
2017-12-26T10:01:25.534Z,15.07
2017-12-26T10:03:51.521Z,15.73
2017-12-26T10:06:18.269Z,21.47
2017-12-26T10:08:45.025Z,19.27
2017-12-26T10:11:11.735Z,15.77
2017-12-26T10:13:37.694Z,22.10
2017-12-26T10:16:03.708Z,16.80
2017-12-26T10:18:29.679Z,15.40
2017-12-26T10:20:56.362Z,17.47
2017-12-26T10:23:22.341Z,17.10
2017-12-26T10:25:48.288Z,18.30
2017-12-26T10:28:15.055Z,18.67
2017-12-26T10:30:41.108Z,18.63
2017-12-26T10:33:07.851Z,19.93
2017-12-26T10:35:34.559Z,19.97
2017-12-26T10:38:00.551Z,21.27
2017-12-26T10:40:27.246Z,19.40
2017-12-26T10:42:53.243Z,24.07
2017-12-26T10:45:19.247Z,21.93
2017-12-26T10:47:45.955Z,23.50
2017-12-26T10:50:11.965Z,30.97
2017-12-26T10:52:37.999Z,25.40
2017-12-26T10:55:03.995Z,26.87
2017-12-26T10:57:30.735Z,19.87
2017-12-26T10:59:56.750Z,19.03
2017-12-26T11:02:22.767Z,20.03
2017-12-26T11:04:48.736Z,28.10
2017-12-26T11:07:14.699Z,17.73
2017-12-26T11:09:41.431Z,84.43
2017-12-26T11:12:07.427Z,25.97
2017-12-26T11:14:33.396Z,20.30
2017-12-26T11:16:59.407Z,28.33
2017-12-26T11:19:25.379Z,21.77
2017-12-26T11:21:51.403Z,20.53
2017-12-26T11:24:17.421Z,22.80
2017-12-26T11:26:43.387Z,20.50
2017-12-26T11:29:09.355Z,22.20
2017-12-26T11:31:36.103Z,19.67
2017-12-26T11:34:02.806Z,22.97
2017-12-26T11:36:28.795Z,20.80
2017-12-26T11:38:55.543Z,20.43
2017-12-26T11:41:22.296Z,19.57
2017-12-26T11:43:48.994Z,19.30
2017-12-26T11:46:14.979Z,16.60
2017-12-26T11:48:41.002Z,18.60
2017-12-26T11:51:07.000Z,17.77
2017-12-26T11:53:33.004Z,18.83
2017-12-26T11:55:58.963Z,20.83
2017-12-26T11:58:24.994Z,15.73
2017-12-26T12:00:50.996Z,17.13
2017-12-26T12:03:17.764Z,21.50
2017-12-26T12:05:43.735Z,12.73
2017-12-26T12:08:09.706Z,16.03
2017-12-26T12:10:35.709Z,15.53
2017-12-26T12:13:01.681Z,13.70
2017-12-26T12:15:27.695Z,14.97
2017-12-26T12:17:53.680Z,13.37
2017-12-26T12:20:20.376Z,13.87
2017-12-26T12:22:46.371Z,16.97
2017-12-26T12:25:13.079Z,14.60
2017-12-26T12:27:39.055Z,15.47
2017-12-26T12:30:05.808Z,14.57
2017-12-26T12:32:32.519Z,10.13
2017-12-26T12:34:58.483Z,18.00
2017-12-26T12:37:24.496Z,16.10
2017-12-26T12:39:50.455Z,16.10
2017-12-26T12:42:16.475Z,16.63
2017-12-26T12:44:42.451Z,15.17
2017-12-26T12:47:09.155Z,17.07
2017-12-26T12:49:35.161Z,14.37
2017-12-26T12:52:01.114Z,16.97
2017-12-26T12:54:27.066Z,15.57
2017-12-26T12:56:53.083Z,19.23
2017-12-26T12:59:19.067Z,15.23
2017-12-26T13:01:45.776Z,14.90
2017-12-26T13:04:11.831Z,15.53
2017-12-26T13:06:37.783Z,16.70
2017-12-26T13:09:03.740Z,15.43
2017-12-26T13:11:30.462Z,16.47
2017-12-26T13:13:56.415Z,16.47
2017-12-26T13:16:23.169Z,14.67
2017-12-26T13:18:49.863Z,18.70
2017-12-26T13:21:15.824Z,13.10
2017-12-26T13:23:41.842Z,14.07
2017-12-26T13:26:07.827Z,14.97
2017-12-26T13:28:33.820Z,15.37
2017-12-26T13:30:59.762Z,14.53
2017-12-26T13:33:25.752Z,15.23
2017-12-26T13:35:52.466Z,12.53
2017-12-26T13:38:18.418Z,13.43
2017-12-26T13:40:45.869Z,16.57
2017-12-26T13:43:11.843Z,14.10
2017-12-26T13:45:38.562Z,15.03
2017-12-26T13:48:04.509Z,13.23
2017-12-26T13:50:30.468Z,14.10
2017-12-26T13:52:57.199Z,16.43
2017-12-26T13:55:23.235Z,14.57
2017-12-26T13:57:49.217Z,14.40
2017-12-26T14:00:15.144Z,14.00
2017-12-26T14:02:41.137Z,12.93
2017-12-26T14:05:07.078Z,11.70
2017-12-26T14:07:33.018Z,11.70
2017-12-26T14:09:59.026Z,12.10
2017-12-26T14:12:25.049Z,9.30
2017-12-26T14:14:51.002Z,13.40
2017-12-26T14:17:16.936Z,12.67
2017-12-26T14:19:42.921Z,12.00
2017-12-26T14:22:08.912Z,15.03
2017-12-26T14:24:34.909Z,12.83
2017-12-26T14:27:00.849Z,12.90
2017-12-26T14:29:26.790Z,13.30
2017-12-26T14:31:52.778Z,13.13
2017-12-26T14:34:19.466Z,12.70
2017-12-26T14:36:45.465Z,13.70
2017-12-26T14:39:12.216Z,12.30
2017-12-26T14:41:38.224Z,12.33
2017-12-26T14:44:04.221Z,13.73
2017-12-26T14:46:30.165Z,13.70
2017-12-26T14:49:03.214Z,15.30
2017-12-26T14:51:29.175Z,16.63
2017-12-26T14:53:55.966Z,14.80
2017-12-26T14:56:21.978Z,12.43
2017-12-26T14:58:47.961Z,15.40
2017-12-26T15:01:13.953Z,11.47
2017-12-26T15:03:39.957Z,15.47
2017-12-26T15:06:06.137Z,10.67
2017-12-26T15:08:32.082Z,14.23
2017-12-26T15:10:58.138Z,14.10
2017-12-26T15:13:24.107Z,16.37
2017-12-26T15:15:50.070Z,12.90
2017-12-26T15:18:16.050Z,16.47
2017-12-26T15:20:42.054Z,18.53
2017-12-26T15:23:07.993Z,15.00
2017-12-26T15:25:33.929Z,14.63
2017-12-26T15:27:59.893Z,16.47
2017-12-26T15:30:25.927Z,16.83
2017-12-26T15:32:51.949Z,22.53
2017-12-26T15:35:17.928Z,19.17
2017-12-26T15:37:43.894Z,18.23
2017-12-26T15:40:09.909Z,15.87
2017-12-26T15:42:36.887Z,14.77
2017-12-26T15:45:03.600Z,20.77
2017-12-26T15:47:29.582Z,13.97
2017-12-26T15:49:55.551Z,4.80
2017-12-26T15:52:21.558Z,3.27
2017-12-26T15:54:47.539Z,4.00
2017-12-26T15:57:13.491Z,10.70
2017-12-26T15:59:39.498Z,8.20
2017-12-26T16:02:05.458Z,5.87
2017-12-26T16:04:32.911Z,4.67
2017-12-26T16:06:58.897Z,3.00
2017-12-26T16:09:24.894Z,2.30
2017-12-26T16:11:50.869Z,3.73
2017-12-26T16:14:16.898Z,2.23
2017-12-26T16:16:43.646Z,2.00
2017-12-26T16:19:10.330Z,15.10
2017-12-26T16:21:36.330Z,1.90
2017-12-26T16:24:03.096Z,1.83
2017-12-26T16:26:29.822Z,1.60
2017-12-26T16:28:55.822Z,3.10
2017-12-26T16:31:21.793Z,2.03
2017-12-26T16:33:47.749Z,2.90
2017-12-26T16:36:14.538Z,2.53
2017-12-26T16:38:40.538Z,1.80
2017-12-26T16:41:07.262Z,2.60
2017-12-26T16:43:33.249Z,3.63
2017-12-26T16:45:59.984Z,2.50
2017-12-26T16:48:26.697Z,2.10
2017-12-26T16:50:52.663Z,1.50
2017-12-26T16:53:18.632Z,2.20
2017-12-26T16:55:44.680Z,1.33
2017-12-26T16:58:10.773Z,1.23
2017-12-26T17:00:36.762Z,0.97
2017-12-26T17:03:02.765Z,1.33
2017-12-26T17:05:29.466Z,0.90
2017-12-26T17:07:55.414Z,1.10
2017-12-26T17:10:21.446Z,0.70
2017-12-26T17:12:47.417Z,0.67
2017-12-26T17:15:14.102Z,1.30
2017-12-26T17:17:40.125Z,0.70
2017-12-26T17:20:06.078Z,1.50
2017-12-26T17:22:32.065Z,0.70
2017-12-26T17:24:58.058Z,1.13
2017-12-26T17:27:24.046Z,13.23
2017-12-26T17:29:50.009Z,2.00
2017-12-26T17:32:15.982Z,2.27
2017-12-26T17:34:41.930Z,1.20
2017-12-26T17:37:07.965Z,0.80
2017-12-26T17:39:33.924Z,3.43
2017-12-26T17:42:00.620Z,1.90
2017-12-26T17:44:26.598Z,18.10
2017-12-26T17:46:52.595Z,3.60
2017-12-26T17:49:18.591Z,3.80
2017-12-26T17:51:45.354Z,3.20
2017-12-26T17:54:12.082Z,3.00
2017-12-26T17:56:38.116Z,3.87
2017-12-26T17:59:04.179Z,2.17
2017-12-26T18:01:31.448Z,2.73
2017-12-26T18:03:58.184Z,2.40
2017-12-26T18:06:24.259Z,2.90
2017-12-26T18:08:50.218Z,2.40
2017-12-26T18:11:16.242Z,3.03
2017-12-26T18:13:42.311Z,2.13
2017-12-26T18:16:08.299Z,1.50
2017-12-26T18:18:34.282Z,1.70
2017-12-26T18:21:00.294Z,1.93
2017-12-26T18:23:26.312Z,1.47
2017-12-26T18:25:52.303Z,2.00
2017-12-26T18:28:18.356Z,3.23
2017-12-26T18:30:45.076Z,2.10
2017-12-26T18:33:11.099Z,6.50
2017-12-26T18:35:37.086Z,3.70
2017-12-26T18:38:03.062Z,1.97
2017-12-26T18:40:29.013Z,1.63
2017-12-26T18:42:55.000Z,2.03
2017-12-26T18:45:21.765Z,2.80
2017-12-26T18:47:47.791Z,3.27
2017-12-26T18:50:14.523Z,2.03
2017-12-26T18:52:40.559Z,2.63
2017-12-26T18:55:06.551Z,8.90
2017-12-26T18:57:32.598Z,2.57
2017-12-26T18:59:58.614Z,12.63
2017-12-26T19:02:26.405Z,27.67
2017-12-26T19:04:52.410Z,81.70
2017-12-26T19:07:19.137Z,12.07
2017-12-26T19:09:45.829Z,11.67
2017-12-26T19:12:11.870Z,3.20
2017-12-26T19:14:37.905Z,2.47
2017-12-26T19:17:03.881Z,4.53
2017-12-26T19:19:30.566Z,2.80
2017-12-26T19:21:56.643Z,3.80
2017-12-26T19:24:22.604Z,3.43
2017-12-26T19:26:48.614Z,2.93
2017-12-26T19:29:14.650Z,2.17
2017-12-26T19:31:40.652Z,2.67
2017-12-26T19:34:07.397Z,3.20
2017-12-26T19:36:33.407Z,4.00
2017-12-26T19:38:59.388Z,3.17
2017-12-26T19:41:26.147Z,3.40
2017-12-26T19:43:52.895Z,5.13
2017-12-26T19:46:19.674Z,3.03
2017-12-26T19:48:45.654Z,2.83
2017-12-26T19:51:11.634Z,2.50
2017-12-26T19:53:38.436Z,3.13
2017-12-26T19:56:04.472Z,4.10
2017-12-26T19:58:30.400Z,3.30
2017-12-26T20:00:56.462Z,2.10
2017-12-26T20:03:22.500Z,2.93
2017-12-26T20:05:48.516Z,3.43
2017-12-26T20:08:14.552Z,2.53
2017-12-26T20:10:40.507Z,3.07
2017-12-26T20:13:06.528Z,3.07
2017-12-26T20:15:32.625Z,105.20
2017-12-26T20:17:58.611Z,39.23
2017-12-26T20:20:24.659Z,45.47
2017-12-26T20:22:50.610Z,55.47
2017-12-26T20:25:17.393Z,23.07
2017-12-26T20:27:43.405Z,15.37
2017-12-26T20:30:10.224Z,4.80
2017-12-26T20:32:36.178Z,6.60
2017-12-26T20:35:02.172Z,2.80
2017-12-26T20:37:28.237Z,5.03
2017-12-26T20:39:54.274Z,1.73
2017-12-26T20:42:20.290Z,5.20
2017-12-26T20:44:46.278Z,2.23
2017-12-26T20:47:13.039Z,4.07
2017-12-26T20:49:39.813Z,10.83
2017-12-26T20:52:06.559Z,7.70
2017-12-26T20:54:32.576Z,7.30
2017-12-26T20:56:59.315Z,2.10
2017-12-26T20:59:25.502Z,1.70
2017-12-26T21:01:51.522Z,2.10
2017-12-26T21:04:18.242Z,2.30
2017-12-26T21:06:45.096Z,2.90
2017-12-26T21:09:11.097Z,2.63
2017-12-26T21:11:37.080Z,2.00
2017-12-26T21:14:03.126Z,2.70
2017-12-26T21:16:29.865Z,4.53
2017-12-26T21:18:56.699Z,2.17
2017-12-26T21:21:22.728Z,1.67
2017-12-26T21:23:48.737Z,2.70
2017-12-26T21:26:14.777Z,2.03
2017-12-26T21:28:40.779Z,2.43
2017-12-26T21:31:07.574Z,3.80
2017-12-26T21:33:34.313Z,2.50
2017-12-26T21:36:00.336Z,2.20
2017-12-26T21:38:27.081Z,2.90
2017-12-26T21:40:53.157Z,2.67
2017-12-26T21:43:19.188Z,2.57
2017-12-26T21:45:45.250Z,2.13
2017-12-26T21:48:11.301Z,2.90
2017-12-26T21:50:37.295Z,7.80
2017-12-26T21:53:03.406Z,2.60
2017-12-26T21:55:30.179Z,3.27
2017-12-26T21:57:56.961Z,2.20
2017-12-26T22:00:23.045Z,2.30
2017-12-26T22:02:49.836Z,2.47
2017-12-26T22:05:15.828Z,4.13
2017-12-26T22:07:42.612Z,2.90
2017-12-26T22:10:09.471Z,3.97
2017-12-26T22:12:36.203Z,5.53
2017-12-26T22:15:02.232Z,2.73
2017-12-26T22:17:28.232Z,2.80
2017-12-26T22:19:54.267Z,3.67
2017-12-26T22:22:20.247Z,3.10
2017-12-26T22:24:46.986Z,3.20
2017-12-26T22:27:13.001Z,4.40
2017-12-26T22:29:38.992Z,3.27
2017-12-26T22:32:05.789Z,3.30
2017-12-26T22:34:31.801Z,4.10
2017-12-26T22:36:57.804Z,2.83
2017-12-26T22:39:23.868Z,4.00
2017-12-26T22:41:49.899Z,3.50
2017-12-26T22:44:16.696Z,5.80
2017-12-26T22:46:43.439Z,6.97
2017-12-26T22:49:09.466Z,5.57
2017-12-26T22:51:35.509Z,5.70
2017-12-26T22:54:01.517Z,4.97
2017-12-26T22:56:28.296Z,5.30
2017-12-26T22:58:54.364Z,4.87
2017-12-26T23:01:20.388Z,5.70
2017-12-26T23:03:53.480Z,4.77
2017-12-26T23:06:20.234Z,9.33
2017-12-26T23:08:46.289Z,7.83
2017-12-26T23:11:12.285Z,8.77
2017-12-26T23:13:39.047Z,6.73
2017-12-26T23:16:11.078Z,10.17
2017-12-26T23:18:37.099Z,8.30
2017-12-26T23:21:03.082Z,8.87
2017-12-26T23:23:35.967Z,8.67
2017-12-26T23:26:08.056Z,10.47
2017-12-26T23:28:40.999Z,10.07
2017-12-26T23:31:13.172Z,9.23
2017-12-26T23:33:45.476Z,9.77
2017-12-26T23:36:17.636Z,11.03
2017-12-26T23:38:49.856Z,10.30
2017-12-26T23:41:21.963Z,8.80
2017-12-26T23:46:54.316Z,9.67
2017-12-26T23:49:26.392Z,11.13
2017-12-26T23:51:58.636Z,11.90
2017-12-26T23:54:30.823Z,11.10
2017-12-26T23:57:03.026Z,11.80
2017-12-26T23:59:35.278Z,13.60
